sensor_id;sensor_type;location;lat;lon;timestamp;temperature;humidity
38592;DHT22;24356;48.460;11.450;2022-07-23T00:00:52;22.70;74.10
38592;DHT22;24356;48.460;11.450;2022-07-23T00:03:17;22.70;74.10
38592;DHT22;24356;48.460;11.450;2022-07-23T00:05:43;22.70;74.10
38592;DHT22;24356;48.460;11.450;2022-07-23T00:08:08;22.70;74.10
38592;DHT22;24356;48.460;11.450;2022-07-23T00:10:35;22.70;74.10
38592;DHT22;24356;48.460;11.450;2022-07-23T00:13:00;22.70;74.10
38592;DHT22;24356;48.460;11.450;2022-07-23T00:15:26;22.70;74.10
38592;DHT22;24356;48.460;11.450;2022-07-23T00:17:54;22.70;74.10
38592;DHT22;24356;48.460;11.450;2022-07-23T00:20:20;22.70;74.00
38592;DHT22;24356;48.460;11.450;2022-07-23T00:22:50;22.60;74.10
38592;DHT22;24356;48.460;11.450;2022-07-23T00:25:16;22.60;74.10
38592;DHT22;24356;48.460;11.450;2022-07-23T00:27:42;22.60;74.10
38592;DHT22;24356;48.460;11.450;2022-07-23T00:30:08;22.60;74.10
38592;DHT22;24356;48.460;11.450;2022-07-23T00:32:48;22.60;74.10
38592;DHT22;24356;48.460;11.450;2022-07-23T00:35:16;22.50;74.10
38592;DHT22;24356;48.460;11.450;2022-07-23T00:37:42;22.50;74.20
38592;DHT22;24356;48.460;11.450;2022-07-23T00:40:08;22.50;74.20
38592;DHT22;24356;48.460;11.450;2022-07-23T00:42:34;22.50;74.20
38592;DHT22;24356;48.460;11.450;2022-07-23T00:45:00;22.50;74.20
38592;DHT22;24356;48.460;11.450;2022-07-23T00:47:25;22.50;74.10
38592;DHT22;24356;48.460;11.450;2022-07-23T00:49:51;22.50;74.10
38592;DHT22;24356;48.460;11.450;2022-07-23T00:52:17;22.50;74.20
38592;DHT22;24356;48.460;11.450;2022-07-23T00:54:42;22.50;74.20
38592;DHT22;24356;48.460;11.450;2022-07-23T00:57:09;22.50;74.20
38592;DHT22;24356;48.460;11.450;2022-07-23T00:59:34;22.50;74.20
38592;DHT22;24356;48.460;11.450;2022-07-23T01:02:00;22.50;74.20
38592;DHT22;24356;48.460;11.450;2022-07-23T01:04:26;22.50;74.20
38592;DHT22;24356;48.460;11.450;2022-07-23T01:06:51;22.50;74.10
38592;DHT22;24356;48.460;11.450;2022-07-23T01:09:17;22.50;74.20
38592;DHT22;24356;48.460;11.450;2022-07-23T01:11:43;22.50;74.20
38592;DHT22;24356;48.460;11.450;2022-07-23T01:14:16;22.40;74.40
38592;DHT22;24356;48.460;11.450;2022-07-23T01:16:44;22.40;74.30
38592;DHT22;24356;48.460;11.450;2022-07-23T01:19:10;22.30;74.50
38592;DHT22;24356;48.460;11.450;2022-07-23T01:21:39;22.30;74.80
38592;DHT22;24356;48.460;11.450;2022-07-23T01:24:05;22.20;75.00
38592;DHT22;24356;48.460;11.450;2022-07-23T01:26:31;22.10;74.90
38592;DHT22;24356;48.460;11.450;2022-07-23T01:28:57;21.90;75.10
38592;DHT22;24356;48.460;11.450;2022-07-23T01:31:22;21.80;75.30
38592;DHT22;24356;48.460;11.450;2022-07-23T01:33:48;21.70;75.70
38592;DHT22;24356;48.460;11.450;2022-07-23T01:36:14;21.60;76.30
38592;DHT22;24356;48.460;11.450;2022-07-23T01:38:40;21.50;76.20
38592;DHT22;24356;48.460;11.450;2022-07-23T01:41:05;21.40;76.50
38592;DHT22;24356;48.460;11.450;2022-07-23T01:43:31;21.40;76.80
38592;DHT22;24356;48.460;11.450;2022-07-23T01:45:56;21.30;76.80
38592;DHT22;24356;48.460;11.450;2022-07-23T01:48:23;21.30;76.90
38592;DHT22;24356;48.460;11.450;2022-07-23T01:50:48;21.20;77.10
38592;DHT22;24356;48.460;11.450;2022-07-23T01:53:15;21.20;77.10
38592;DHT22;24356;48.460;11.450;2022-07-23T01:55:42;21.10;77.50
38592;DHT22;24356;48.460;11.450;2022-07-23T01:58:08;21.10;77.40
38592;DHT22;24356;48.460;11.450;2022-07-23T02:00:33;21.10;77.40
38592;DHT22;24356;48.460;11.450;2022-07-23T02:02:59;21.00;77.50
38592;DHT22;24356;48.460;11.450;2022-07-23T02:05:25;21.00;77.70
38592;DHT22;24356;48.460;11.450;2022-07-23T02:07:54;21.00;77.70
38592;DHT22;24356;48.460;11.450;2022-07-23T02:10:20;21.00;77.80
38592;DHT22;24356;48.460;11.450;2022-07-23T02:12:47;20.90;77.80
38592;DHT22;24356;48.460;11.450;2022-07-23T02:15:12;20.90;77.90
38592;DHT22;24356;48.460;11.450;2022-07-23T02:17:38;20.90;78.00
38592;DHT22;24356;48.460;11.450;2022-07-23T02:20:05;20.90;78.00
38592;DHT22;24356;48.460;11.450;2022-07-23T02:22:31;20.80;78.00
38592;DHT22;24356;48.460;11.450;2022-07-23T02:24:57;20.80;78.10
38592;DHT22;24356;48.460;11.450;2022-07-23T02:27:22;20.80;78.30
38592;DHT22;24356;48.460;11.450;2022-07-23T02:29:48;20.80;78.10
38592;DHT22;24356;48.460;11.450;2022-07-23T02:32:14;20.80;78.20
38592;DHT22;24356;48.460;11.450;2022-07-23T02:34:40;20.70;78.20
38592;DHT22;24356;48.460;11.450;2022-07-23T02:37:05;20.70;78.20
38592;DHT22;24356;48.460;11.450;2022-07-23T02:39:31;20.70;78.40
38592;DHT22;24356;48.460;11.450;2022-07-23T02:41:56;20.70;78.40
38592;DHT22;24356;48.460;11.450;2022-07-23T02:44:24;20.70;78.40
38592;DHT22;24356;48.460;11.450;2022-07-23T02:46:49;20.60;78.50
38592;DHT22;24356;48.460;11.450;2022-07-23T02:49:15;20.60;78.50
38592;DHT22;24356;48.460;11.450;2022-07-23T02:51:40;20.60;78.60
38592;DHT22;24356;48.460;11.450;2022-07-23T02:54:06;20.60;78.60
38592;DHT22;24356;48.460;11.450;2022-07-23T02:56:32;20.50;78.70
38592;DHT22;24356;48.460;11.450;2022-07-23T02:58:57;20.50;78.80
38592;DHT22;24356;48.460;11.450;2022-07-23T03:01:23;20.50;78.80
38592;DHT22;24356;48.460;11.450;2022-07-23T03:03:48;20.50;78.70
38592;DHT22;24356;48.460;11.450;2022-07-23T03:06:14;20.50;78.70
38592;DHT22;24356;48.460;11.450;2022-07-23T03:08:40;20.50;78.70
38592;DHT22;24356;48.460;11.450;2022-07-23T03:11:05;20.50;78.70
38592;DHT22;24356;48.460;11.450;2022-07-23T03:13:36;20.40;78.70
38592;DHT22;24356;48.460;11.450;2022-07-23T03:16:02;20.40;78.80
38592;DHT22;24356;48.460;11.450;2022-07-23T03:18:28;20.40;78.80
38592;DHT22;24356;48.460;11.450;2022-07-23T03:20:55;20.40;78.90
38592;DHT22;24356;48.460;11.450;2022-07-23T03:23:21;20.40;78.80
38592;DHT22;24356;48.460;11.450;2022-07-23T03:25:47;20.40;78.80
38592;DHT22;24356;48.460;11.450;2022-07-23T03:28:16;20.40;78.90
38592;DHT22;24356;48.460;11.450;2022-07-23T03:30:43;20.30;78.80
38592;DHT22;24356;48.460;11.450;2022-07-23T03:33:09;20.30;78.90
38592;DHT22;24356;48.460;11.450;2022-07-23T03:35:34;20.30;78.90
38592;DHT22;24356;48.460;11.450;2022-07-23T03:38:00;20.30;78.90
38592;DHT22;24356;48.460;11.450;2022-07-23T03:40:27;20.30;78.90
38592;DHT22;24356;48.460;11.450;2022-07-23T03:42:53;20.30;78.90
38592;DHT22;24356;48.460;11.450;2022-07-23T03:45:18;20.20;79.00
38592;DHT22;24356;48.460;11.450;2022-07-23T03:47:44;20.20;79.00
38592;DHT22;24356;48.460;11.450;2022-07-23T03:50:10;20.20;79.00
38592;DHT22;24356;48.460;11.450;2022-07-23T03:52:36;20.20;79.00
38592;DHT22;24356;48.460;11.450;2022-07-23T03:55:02;20.20;79.10
38592;DHT22;24356;48.460;11.450;2022-07-23T03:57:28;20.20;79.10
38592;DHT22;24356;48.460;11.450;2022-07-23T03:59:54;20.20;79.10
38592;DHT22;24356;48.460;11.450;2022-07-23T04:02:19;20.20;79.10
38592;DHT22;24356;48.460;11.450;2022-07-23T04:04:45;20.10;79.10
38592;DHT22;24356;48.460;11.450;2022-07-23T04:07:12;20.10;79.10
38592;DHT22;24356;48.460;11.450;2022-07-23T04:09:38;20.10;79.10
38592;DHT22;24356;48.460;11.450;2022-07-23T04:12:06;20.10;79.10
38592;DHT22;24356;48.460;11.450;2022-07-23T04:14:32;20.10;79.10
38592;DHT22;24356;48.460;11.450;2022-07-23T04:16:58;20.00;79.10
38592;DHT22;24356;48.460;11.450;2022-07-23T04:19:26;20.00;79.10
38592;DHT22;24356;48.460;11.450;2022-07-23T04:21:52;20.00;79.10
38592;DHT22;24356;48.460;11.450;2022-07-23T04:24:17;20.00;79.20
38592;DHT22;24356;48.460;11.450;2022-07-23T04:26:44;20.00;79.20
38592;DHT22;24356;48.460;11.450;2022-07-23T04:29:10;20.00;79.10
38592;DHT22;24356;48.460;11.450;2022-07-23T04:31:35;20.00;79.10
38592;DHT22;24356;48.460;11.450;2022-07-23T04:34:01;20.00;79.20
38592;DHT22;24356;48.460;11.450;2022-07-23T04:36:27;20.00;79.10
38592;DHT22;24356;48.460;11.450;2022-07-23T04:38:53;20.00;79.20
38592;DHT22;24356;48.460;11.450;2022-07-23T04:41:19;20.00;79.20
38592;DHT22;24356;48.460;11.450;2022-07-23T04:43:44;19.90;79.20
38592;DHT22;24356;48.460;11.450;2022-07-23T04:46:10;19.90;79.20
38592;DHT22;24356;48.460;11.450;2022-07-23T04:48:36;19.90;79.20
38592;DHT22;24356;48.460;11.450;2022-07-23T04:51:02;19.90;79.20
38592;DHT22;24356;48.460;11.450;2022-07-23T04:53:28;19.90;79.20
38592;DHT22;24356;48.460;11.450;2022-07-23T04:55:53;19.90;79.10
38592;DHT22;24356;48.460;11.450;2022-07-23T04:58:19;19.90;79.10
38592;DHT22;24356;48.460;11.450;2022-07-23T05:00:45;19.90;79.10
38592;DHT22;24356;48.460;11.450;2022-07-23T05:03:11;19.90;79.10
38592;DHT22;24356;48.460;11.450;2022-07-23T05:05:37;19.90;79.10
38592;DHT22;24356;48.460;11.450;2022-07-23T05:08:03;19.90;79.10
38592;DHT22;24356;48.460;11.450;2022-07-23T05:10:28;19.90;79.10
38592;DHT22;24356;48.460;11.450;2022-07-23T05:12:54;19.90;79.10
38592;DHT22;24356;48.460;11.450;2022-07-23T05:15:19;20.00;79.10
38592;DHT22;24356;48.460;11.450;2022-07-23T05:17:45;20.00;79.10
38592;DHT22;24356;48.460;11.450;2022-07-23T05:20:11;20.00;79.00
38592;DHT22;24356;48.460;11.450;2022-07-23T05:22:36;20.00;79.00
38592;DHT22;24356;48.460;11.450;2022-07-23T05:25:02;20.00;79.10
38592;DHT22;24356;48.460;11.450;2022-07-23T05:27:28;20.00;79.30
38592;DHT22;24356;48.460;11.450;2022-07-23T05:29:53;20.00;79.10
38592;DHT22;24356;48.460;11.450;2022-07-23T05:32:19;20.00;79.00
38592;DHT22;24356;48.460;11.450;2022-07-23T05:34:44;20.00;79.00
38592;DHT22;24356;48.460;11.450;2022-07-23T05:37:11;20.00;79.00
38592;DHT22;24356;48.460;11.450;2022-07-23T05:39:37;20.00;79.00
38592;DHT22;24356;48.460;11.450;2022-07-23T05:42:03;20.00;79.00
38592;DHT22;24356;48.460;11.450;2022-07-23T05:44:28;20.00;79.00
38592;DHT22;24356;48.460;11.450;2022-07-23T05:46:54;20.00;79.00
38592;DHT22;24356;48.460;11.450;2022-07-23T05:49:21;20.00;79.00
38592;DHT22;24356;48.460;11.450;2022-07-23T05:51:46;20.00;78.90
38592;DHT22;24356;48.460;11.450;2022-07-23T05:54:12;20.00;78.90
38592;DHT22;24356;48.460;11.450;2022-07-23T05:56:37;20.10;78.90
38592;DHT22;24356;48.460;11.450;2022-07-23T05:59:03;20.10;78.90
38592;DHT22;24356;48.460;11.450;2022-07-23T06:01:29;20.10;78.90
38592;DHT22;24356;48.460;11.450;2022-07-23T06:03:55;20.10;78.90
38592;DHT22;24356;48.460;11.450;2022-07-23T06:06:20;20.10;78.90
38592;DHT22;24356;48.460;11.450;2022-07-23T06:08:46;20.10;78.80
38592;DHT22;24356;48.460;11.450;2022-07-23T06:11:11;20.10;78.80
38592;DHT22;24356;48.460;11.450;2022-07-23T06:13:37;20.20;78.80
38592;DHT22;24356;48.460;11.450;2022-07-23T06:16:03;20.20;78.80
38592;DHT22;24356;48.460;11.450;2022-07-23T06:18:28;20.20;78.70
38592;DHT22;24356;48.460;11.450;2022-07-23T06:20:55;20.20;78.70
38592;DHT22;24356;48.460;11.450;2022-07-23T06:23:21;20.20;78.70
38592;DHT22;24356;48.460;11.450;2022-07-23T06:25:46;20.20;78.70
38592;DHT22;24356;48.460;11.450;2022-07-23T06:28:12;20.20;78.60
38592;DHT22;24356;48.460;11.450;2022-07-23T06:30:37;20.20;78.60
38592;DHT22;24356;48.460;11.450;2022-07-23T06:33:03;20.20;78.40
38592;DHT22;24356;48.460;11.450;2022-07-23T06:35:29;20.20;78.40
38592;DHT22;24356;48.460;11.450;2022-07-23T06:37:54;20.20;78.40
38592;DHT22;24356;48.460;11.450;2022-07-23T06:40:20;20.20;78.30
38592;DHT22;24356;48.460;11.450;2022-07-23T06:42:46;20.30;78.20
38592;DHT22;24356;48.460;11.450;2022-07-23T06:45:11;20.30;78.10
38592;DHT22;24356;48.460;11.450;2022-07-23T06:47:37;20.30;78.10
38592;DHT22;24356;48.460;11.450;2022-07-23T06:50:07;20.40;78.10
38592;DHT22;24356;48.460;11.450;2022-07-23T06:52:32;20.40;78.10
38592;DHT22;24356;48.460;11.450;2022-07-23T06:54:58;20.40;78.00
38592;DHT22;24356;48.460;11.450;2022-07-23T06:57:24;20.40;78.20
38592;DHT22;24356;48.460;11.450;2022-07-23T06:59:52;20.50;78.10
38592;DHT22;24356;48.460;11.450;2022-07-23T07:02:17;20.50;78.10
38592;DHT22;24356;48.460;11.450;2022-07-23T07:04:43;20.50;78.50
38592;DHT22;24356;48.460;11.450;2022-07-23T07:07:09;20.50;78.40
38592;DHT22;24356;48.460;11.450;2022-07-23T07:09:34;20.60;78.30
38592;DHT22;24356;48.460;11.450;2022-07-23T07:12:00;20.60;78.20
38592;DHT22;24356;48.460;11.450;2022-07-23T07:14:26;20.60;78.20
38592;DHT22;24356;48.460;11.450;2022-07-23T07:16:52;20.70;78.20
38592;DHT22;24356;48.460;11.450;2022-07-23T07:19:18;20.70;78.40
38592;DHT22;24356;48.460;11.450;2022-07-23T07:21:43;20.70;78.30
38592;DHT22;24356;48.460;11.450;2022-07-23T07:24:09;20.80;78.30
38592;DHT22;24356;48.460;11.450;2022-07-23T07:26:34;20.80;78.30
38592;DHT22;24356;48.460;11.450;2022-07-23T07:29:00;20.90;78.00
38592;DHT22;24356;48.460;11.450;2022-07-23T07:31:26;20.90;78.00
38592;DHT22;24356;48.460;11.450;2022-07-23T07:33:52;20.90;77.90
38592;DHT22;24356;48.460;11.450;2022-07-23T07:36:17;21.00;77.80
38592;DHT22;24356;48.460;11.450;2022-07-23T07:38:43;21.00;77.60
38592;DHT22;24356;48.460;11.450;2022-07-23T07:41:09;21.00;77.50
38592;DHT22;24356;48.460;11.450;2022-07-23T07:43:36;21.00;77.50
38592;DHT22;24356;48.460;11.450;2022-07-23T07:46:02;21.00;77.40
38592;DHT22;24356;48.460;11.450;2022-07-23T07:48:28;21.10;77.30
38592;DHT22;24356;48.460;11.450;2022-07-23T07:50:54;21.00;77.40
38592;DHT22;24356;48.460;11.450;2022-07-23T07:53:19;21.10;77.50
38592;DHT22;24356;48.460;11.450;2022-07-23T07:55:45;21.10;77.40
38592;DHT22;24356;48.460;11.450;2022-07-23T07:58:11;21.10;77.40
38592;DHT22;24356;48.460;11.450;2022-07-23T08:00:36;21.10;77.30
38592;DHT22;24356;48.460;11.450;2022-07-23T08:03:02;21.10;77.20
38592;DHT22;24356;48.460;11.450;2022-07-23T08:05:29;21.10;77.20
38592;DHT22;24356;48.460;11.450;2022-07-23T08:07:56;21.00;77.20
38592;DHT22;24356;48.460;11.450;2022-07-23T08:10:22;21.00;76.90
38592;DHT22;24356;48.460;11.450;2022-07-23T08:12:50;21.00;76.70
38592;DHT22;24356;48.460;11.450;2022-07-23T08:15:17;21.00;76.70
38592;DHT22;24356;48.460;11.450;2022-07-23T08:17:44;21.00;76.80
38592;DHT22;24356;48.460;11.450;2022-07-23T08:20:12;21.00;77.00
38592;DHT22;24356;48.460;11.450;2022-07-23T08:22:56;21.00;76.60
38592;DHT22;24356;48.460;11.450;2022-07-23T08:25:29;20.90;76.70
38592;DHT22;24356;48.460;11.450;2022-07-23T08:27:58;20.90;76.70
38592;DHT22;24356;48.460;11.450;2022-07-23T08:30:24;20.90;76.60
38592;DHT22;24356;48.460;11.450;2022-07-23T08:32:54;20.90;76.60
38592;DHT22;24356;48.460;11.450;2022-07-23T08:35:26;20.90;76.80
38592;DHT22;24356;48.460;11.450;2022-07-23T08:37:51;20.90;76.60
38592;DHT22;24356;48.460;11.450;2022-07-23T08:40:18;20.90;76.60
38592;DHT22;24356;48.460;11.450;2022-07-23T08:42:50;20.90;76.60
38592;DHT22;24356;48.460;11.450;2022-07-23T08:45:18;20.90;76.60
38592;DHT22;24356;48.460;11.450;2022-07-23T08:47:44;21.00;76.60
38592;DHT22;24356;48.460;11.450;2022-07-23T08:50:11;21.00;76.40
38592;DHT22;24356;48.460;11.450;2022-07-23T08:52:37;21.10;76.40
38592;DHT22;24356;48.460;11.450;2022-07-23T08:55:04;21.10;76.50
38592;DHT22;24356;48.460;11.450;2022-07-23T08:57:30;21.20;76.70
38592;DHT22;24356;48.460;11.450;2022-07-23T08:59:57;21.20;76.50
38592;DHT22;24356;48.460;11.450;2022-07-23T09:02:23;21.30;76.60
38592;DHT22;24356;48.460;11.450;2022-07-23T09:04:50;21.40;76.60
38592;DHT22;24356;48.460;11.450;2022-07-23T09:07:16;21.40;76.40
38592;DHT22;24356;48.460;11.450;2022-07-23T09:09:41;21.50;76.60
38592;DHT22;24356;48.460;11.450;2022-07-23T09:12:09;21.60;76.70
38592;DHT22;24356;48.460;11.450;2022-07-23T09:14:41;21.70;77.20
38592;DHT22;24356;48.460;11.450;2022-07-23T09:17:15;21.80;78.80
38592;DHT22;24356;48.460;11.450;2022-07-23T09:19:42;22.00;79.00
38592;DHT22;24356;48.460;11.450;2022-07-23T09:22:26;22.20;79.30
38592;DHT22;24356;48.460;11.450;2022-07-23T09:25:12;22.40;79.40
38592;DHT22;24356;48.460;11.450;2022-07-23T09:27:52;22.60;82.40
38592;DHT22;24356;48.460;11.450;2022-07-23T09:30:23;22.70;82.70
38592;DHT22;24356;48.460;11.450;2022-07-23T09:33:14;22.70;83.30
38592;DHT22;24356;48.460;11.450;2022-07-23T09:35:54;22.90;83.10
38592;DHT22;24356;48.460;11.450;2022-07-23T09:38:24;23.10;83.10
38592;DHT22;24356;48.460;11.450;2022-07-23T09:41:09;23.20;83.00
38592;DHT22;24356;48.460;11.450;2022-07-23T09:43:35;23.30;82.10
38592;DHT22;24356;48.460;11.450;2022-07-23T09:46:27;23.40;82.40
38592;DHT22;24356;48.460;11.450;2022-07-23T09:48:56;23.50;81.70
38592;DHT22;24356;48.460;11.450;2022-07-23T09:51:23;23.60;82.40
38592;DHT22;24356;48.460;11.450;2022-07-23T09:53:49;23.80;82.00
38592;DHT22;24356;48.460;11.450;2022-07-23T09:56:14;23.90;80.90
38592;DHT22;24356;48.460;11.450;2022-07-23T09:58:41;24.10;81.20
38592;DHT22;24356;48.460;11.450;2022-07-23T10:01:14;24.20;80.30
38592;DHT22;24356;48.460;11.450;2022-07-23T10:03:41;24.20;79.20
38592;DHT22;24356;48.460;11.450;2022-07-23T10:06:09;24.40;78.70
38592;DHT22;24356;48.460;11.450;2022-07-23T10:08:37;24.50;79.90
38592;DHT22;24356;48.460;11.450;2022-07-23T10:11:06;24.70;78.30
38592;DHT22;24356;48.460;11.450;2022-07-23T10:13:32;24.80;77.90
38592;DHT22;24356;48.460;11.450;2022-07-23T10:16:16;24.80;77.60
38592;DHT22;24356;48.460;11.450;2022-07-23T10:18:43;25.00;76.80
38592;DHT22;24356;48.460;11.450;2022-07-23T10:21:10;25.00;76.20
38592;DHT22;24356;48.460;11.450;2022-07-23T10:23:39;25.20;76.30
38592;DHT22;24356;48.460;11.450;2022-07-23T10:32:00;25.50;76.20
38592;DHT22;24356;48.460;11.450;2022-07-23T10:37:32;25.90;75.90
38592;DHT22;24356;48.460;11.450;2022-07-23T10:40:17;26.10;75.10
38592;DHT22;24356;48.460;11.450;2022-07-23T10:42:48;26.30;74.50
38592;DHT22;24356;48.460;11.450;2022-07-23T10:45:32;26.30;74.70
38592;DHT22;24356;48.460;11.450;2022-07-23T10:48:18;26.40;74.70
38592;DHT22;24356;48.460;11.450;2022-07-23T10:51:11;26.60;73.30
38592;DHT22;24356;48.460;11.450;2022-07-23T10:56:17;26.70;72.00
38592;DHT22;24356;48.460;11.450;2022-07-23T10:59:05;26.90;73.00
38592;DHT22;24356;48.460;11.450;2022-07-23T11:01:41;27.10;71.80
38592;DHT22;24356;48.460;11.450;2022-07-23T11:04:07;27.00;71.10
38592;DHT22;24356;48.460;11.450;2022-07-23T11:09:41;27.10;72.60
38592;DHT22;24356;48.460;11.450;2022-07-23T11:15:11;27.20;72.30
38592;DHT22;24356;48.460;11.450;2022-07-23T11:18:01;27.30;71.60
38592;DHT22;24356;48.460;11.450;2022-07-23T11:20:27;27.70;71.40
38592;DHT22;24356;48.460;11.450;2022-07-23T11:22:58;28.00;70.50
38592;DHT22;24356;48.460;11.450;2022-07-23T11:28:16;28.40;69.20
38592;DHT22;24356;48.460;11.450;2022-07-23T11:30:44;28.60;68.90
38592;DHT22;24356;48.460;11.450;2022-07-23T11:35:41;28.90;67.90
38592;DHT22;24356;48.460;11.450;2022-07-23T11:38:13;29.00;67.60
38592;DHT22;24356;48.460;11.450;2022-07-23T11:40:40;29.00;67.40
38592;DHT22;24356;48.460;11.450;2022-07-23T11:43:08;29.00;67.40
38592;DHT22;24356;48.460;11.450;2022-07-23T11:45:42;29.10;67.10
38592;DHT22;24356;48.460;11.450;2022-07-23T11:48:15;29.10;67.20
38592;DHT22;24356;48.460;11.450;2022-07-23T11:50:41;29.10;66.90
38592;DHT22;24356;48.460;11.450;2022-07-23T11:53:07;29.20;66.70
38592;DHT22;24356;48.460;11.450;2022-07-23T11:55:32;28.80;67.20
38592;DHT22;24356;48.460;11.450;2022-07-23T11:57:58;28.40;67.70
38592;DHT22;24356;48.460;11.450;2022-07-23T12:00:26;28.30;68.90
38592;DHT22;24356;48.460;11.450;2022-07-23T12:02:55;28.10;68.80
38592;DHT22;24356;48.460;11.450;2022-07-23T12:05:24;28.10;68.10
38592;DHT22;24356;48.460;11.450;2022-07-23T12:07:53;27.90;68.40
38592;DHT22;24356;48.460;11.450;2022-07-23T12:10:24;28.00;68.30
38592;DHT22;24356;48.460;11.450;2022-07-23T12:12:52;28.10;68.60
38592;DHT22;24356;48.460;11.450;2022-07-23T12:15:28;28.20;68.20
38592;DHT22;24356;48.460;11.450;2022-07-23T12:17:57;28.20;68.20
38592;DHT22;24356;48.460;11.450;2022-07-23T12:20:31;28.10;67.10
38592;DHT22;24356;48.460;11.450;2022-07-23T12:22:59;28.00;67.00
38592;DHT22;24356;48.460;11.450;2022-07-23T12:25:36;27.80;66.70
38592;DHT22;24356;48.460;11.450;2022-07-23T12:28:08;27.80;67.60
38592;DHT22;24356;48.460;11.450;2022-07-23T12:33:10;28.00;68.50
38592;DHT22;24356;48.460;11.450;2022-07-23T12:35:38;28.10;67.50
38592;DHT22;24356;48.460;11.450;2022-07-23T12:38:11;28.30;68.10
38592;DHT22;24356;48.460;11.450;2022-07-23T12:43:26;28.60;67.20
38592;DHT22;24356;48.460;11.450;2022-07-23T12:48:40;28.60;66.20
38592;DHT22;24356;48.460;11.450;2022-07-23T12:51:20;28.40;66.00
38592;DHT22;24356;48.460;11.450;2022-07-23T12:53:48;28.50;66.50
38592;DHT22;24356;48.460;11.450;2022-07-23T12:56:15;28.40;66.00
38592;DHT22;24356;48.460;11.450;2022-07-23T13:01:24;28.20;64.90
38592;DHT22;24356;48.460;11.450;2022-07-23T13:06:49;28.00;67.00
38592;DHT22;24356;48.460;11.450;2022-07-23T13:09:23;27.80;67.50
38592;DHT22;24356;48.460;11.450;2022-07-23T13:11:50;27.60;67.60
38592;DHT22;24356;48.460;11.450;2022-07-23T13:14:17;27.50;68.70
38592;DHT22;24356;48.460;11.450;2022-07-23T13:16:44;27.60;69.20
38592;DHT22;24356;48.460;11.450;2022-07-23T13:19:10;27.80;69.00
38592;DHT22;24356;48.460;11.450;2022-07-23T13:21:37;27.90;68.60
38592;DHT22;24356;48.460;11.450;2022-07-23T13:24:03;27.90;67.90
38592;DHT22;24356;48.460;11.450;2022-07-23T13:26:28;28.00;68.70
38592;DHT22;24356;48.460;11.450;2022-07-23T13:28:54;28.10;68.70
38592;DHT22;24356;48.460;11.450;2022-07-23T13:31:20;28.20;67.90
38592;DHT22;24356;48.460;11.450;2022-07-23T13:33:46;28.30;67.50
38592;DHT22;24356;48.460;11.450;2022-07-23T13:36:13;28.30;67.60
38592;DHT22;24356;48.460;11.450;2022-07-23T13:38:38;28.20;67.60
38592;DHT22;24356;48.460;11.450;2022-07-23T13:41:05;28.10;68.20
38592;DHT22;24356;48.460;11.450;2022-07-23T13:43:31;28.10;68.20
38592;DHT22;24356;48.460;11.450;2022-07-23T13:45:57;28.10;69.30
38592;DHT22;24356;48.460;11.450;2022-07-23T13:48:24;28.20;68.80
38592;DHT22;24356;48.460;11.450;2022-07-23T13:50:51;28.10;68.30
38592;DHT22;24356;48.460;11.450;2022-07-23T13:53:19;28.00;68.60
38592;DHT22;24356;48.460;11.450;2022-07-23T13:55:45;27.80;68.00
38592;DHT22;24356;48.460;11.450;2022-07-23T13:58:12;27.80;69.10
38592;DHT22;24356;48.460;11.450;2022-07-23T14:00:41;27.80;69.20
38592;DHT22;24356;48.460;11.450;2022-07-23T14:03:07;27.70;68.00
38592;DHT22;24356;48.460;11.450;2022-07-23T14:05:33;27.60;69.20
38592;DHT22;24356;48.460;11.450;2022-07-23T14:07:59;27.50;69.50
38592;DHT22;24356;48.460;11.450;2022-07-23T14:10:25;27.50;69.40
38592;DHT22;24356;48.460;11.450;2022-07-23T14:12:51;27.50;69.90
38592;DHT22;24356;48.460;11.450;2022-07-23T14:15:19;27.50;69.50
38592;DHT22;24356;48.460;11.450;2022-07-23T14:17:45;27.40;70.00
38592;DHT22;24356;48.460;11.450;2022-07-23T14:20:12;27.30;69.20
38592;DHT22;24356;48.460;11.450;2022-07-23T14:22:39;27.20;69.40
38592;DHT22;24356;48.460;11.450;2022-07-23T14:25:07;27.30;69.70
38592;DHT22;24356;48.460;11.450;2022-07-23T14:27:34;27.70;70.40
38592;DHT22;24356;48.460;11.450;2022-07-23T14:30:00;27.90;70.50
38592;DHT22;24356;48.460;11.450;2022-07-23T14:32:27;27.90;70.60
38592;DHT22;24356;48.460;11.450;2022-07-23T14:34:53;27.80;69.90
38592;DHT22;24356;48.460;11.450;2022-07-23T14:37:20;27.70;70.60
38592;DHT22;24356;48.460;11.450;2022-07-23T14:39:47;27.50;70.30
38592;DHT22;24356;48.460;11.450;2022-07-23T14:42:12;27.60;70.90
38592;DHT22;24356;48.460;11.450;2022-07-23T14:44:39;27.90;70.50
38592;DHT22;24356;48.460;11.450;2022-07-23T14:47:05;28.10;70.20
38592;DHT22;24356;48.460;11.450;2022-07-23T14:49:32;28.30;70.00
38592;DHT22;24356;48.460;11.450;2022-07-23T14:51:58;28.40;69.90
38592;DHT22;24356;48.460;11.450;2022-07-23T14:54:26;28.60;69.80
38592;DHT22;24356;48.460;11.450;2022-07-23T14:56:53;28.80;69.20
38592;DHT22;24356;48.460;11.450;2022-07-23T14:59:19;28.90;68.70
38592;DHT22;24356;48.460;11.450;2022-07-23T15:01:45;29.00;68.60
38592;DHT22;24356;48.460;11.450;2022-07-23T15:04:11;29.10;68.20
38592;DHT22;24356;48.460;11.450;2022-07-23T15:06:36;29.20;67.90
38592;DHT22;24356;48.460;11.450;2022-07-23T15:09:04;29.20;67.60
38592;DHT22;24356;48.460;11.450;2022-07-23T15:11:30;29.30;68.00
38592;DHT22;24356;48.460;11.450;2022-07-23T15:14:00;29.40;67.70
38592;DHT22;24356;48.460;11.450;2022-07-23T15:16:26;29.50;67.40
38592;DHT22;24356;48.460;11.450;2022-07-23T15:18:53;29.60;67.30
38592;DHT22;24356;48.460;11.450;2022-07-23T15:21:19;29.70;67.10
38592;DHT22;24356;48.460;11.450;2022-07-23T15:23:47;29.80;66.70
38592;DHT22;24356;48.460;11.450;2022-07-23T15:26:14;29.80;66.30
38592;DHT22;24356;48.460;11.450;2022-07-23T15:28:41;29.90;66.30
38592;DHT22;24356;48.460;11.450;2022-07-23T15:31:07;30.00;66.30
38592;DHT22;24356;48.460;11.450;2022-07-23T15:33:32;30.00;66.00
38592;DHT22;24356;48.460;11.450;2022-07-23T15:35:58;29.90;65.90
38592;DHT22;24356;48.460;11.450;2022-07-23T15:38:25;29.80;65.70
38592;DHT22;24356;48.460;11.450;2022-07-23T15:40:54;29.70;65.80
38592;DHT22;24356;48.460;11.450;2022-07-23T15:43:20;29.50;65.90
38592;DHT22;24356;48.460;11.450;2022-07-23T15:45:46;29.40;66.10
38592;DHT22;24356;48.460;11.450;2022-07-23T15:48:12;29.20;66.60
38592;DHT22;24356;48.460;11.450;2022-07-23T15:50:39;29.10;66.70
38592;DHT22;24356;48.460;11.450;2022-07-23T15:53:05;28.90;67.00